Dati Storici

Data ora Umidita' aria (%) Temperatura aria (°C) Rad globale (W/m²) Gonioanemometro (°) Tacoanemometro (m/s) Pioggia (mm)
28-10-2012 11:30 74.7 % 7.691 92.652 16.823 4.945 0
28-10-2012 11:20 69.4 % 8.496 35.977 48.262 2.794 0
28-10-2012 11:10 69.3 % 8.499 25.247 77.57 3.234 0
28-10-2012 11:00 68.3 % 8.775 30.617 144.518 3.893 0
28-10-2012 10:50 69.1 % 8.89 137.637 67.538 1.688 0
28-10-2012 10:40 70 % 8.805 94.428 116.025 4.185 0
28-10-2012 10:30 70.4 % 8.817 99.51 55.979 2.295 0
28-10-2012 10:20 70 % 8.841 54.09 21.507 3.251 0
28-10-2012 10:10 70.3 % 8.884 29.215 45.522 4.506 0
28-10-2012 10:00 70.8 % 8.828 18.352 72.752 5.868 0
28-10-2012 09:50 71.2 % 8.814 25.859 34.673 3.375 0
28-10-2012 09:40 71.5 % 8.79 37.857 84.807 6.043 0
28-10-2012 09:30 71.5 % 8.792 50.041 74.245 5.32 0
28-10-2012 09:20 71.4 % 8.851 43.487 56.5 6.55 0
28-10-2012 09:10 70.8 % 8.977 70.256 30.133 6.317 0
28-10-2012 09:00 71 % 9.007 56.874 47.935 3.204 0
28-10-2012 08:50 72.3 % 8.936 71.104 93.39 6.335 0
28-10-2012 08:40 72.7 % 8.898 62.163 61.235 9.329 0
28-10-2012 08:30 73 % 8.928 52.326 83.384 4.13 0
28-10-2012 08:20 74.2 % 8.772 39.775 11.72 5.638 0

I dati sono presentati in modo automatico a scopo informativo. In seguito a verifica i dati possono subire modifiche o essere invalidati e non riportati negli archivi definitivi.